Time;durP1;ratioP1;P1;durP2;ratioP2;P2;SDS_P1;SDS_P2;PMS_P1;PMS_P2;Temp;Humidity;BMP_temperature;BMP_pressure;BME280_temperature;BME280_humidity;BME280_pressure;Samples;Min_cycle;Max_cycle;Signal;HPM_P1;HPM_P2
2024/02/12 00:00:57;;;;;;;;;2.00;1.00;;;;;15.18;100.00;99555.41;2116014;27;46526;-48
2024/02/12 00:01:58;;;;;;;;;2.00;2.00;;;;;15.17;100.00;99555.50;2108275;27;46774;-49
2024/02/12 00:02:58;;;;;;;;;1.00;1.00;;;;;15.12;100.00;99554.91;2105258;27;46452;-48
2024/02/12 00:03:58;;;;;;;;;1.33;1.00;;;;;15.24;100.00;99559.53;2117681;27;46281;-52
2024/02/12 00:05:00;;;;;;;;;3.00;2.00;;;;;14.97;100.00;99554.00;2115387;27;46613;-51
2024/02/12 00:06:02;;;;;;;;;2.00;2.00;;;;;14.92;100.00;99558.75;2116882;27;46432;-49
2024/02/12 00:07:03;;;;;;;;;1.00;1.00;;;;;14.90;100.00;99556.19;2117641;27;46683;-50
2024/02/12 00:08:07;;;;;;;;;3.00;3.00;;;;;14.91;100.00;99562.38;2116734;27;46242;-52
2024/02/12 00:09:07;;;;;;;;;3.75;3.00;;;;;14.89;100.00;99566.94;2091123;28;46500;-50
2024/02/12 00:10:11;;;;;;;;;3.00;2.00;;;;;14.87;100.00;99564.38;2091214;27;46830;-51
2024/02/12 00:11:11;;;;;;;;;1.25;1.25;;;;;14.84;100.00;99572.53;2106823;27;46873;-50
2024/02/12 00:12:13;;;;;;;;;1.67;1.67;;;;;14.85;100.00;99568.91;2107759;27;46867;-49
2024/02/12 00:13:13;;;;;;;;;1.75;1.75;;;;;14.85;100.00;99563.56;2117196;27;46601;-55
2024/02/12 00:14:14;;;;;;;;;1.00;1.00;;;;;14.83;100.00;99562.81;2117442;27;46294;-51
2024/02/12 00:15:15;;;;;;;;;1.25;1.25;;;;;14.80;100.00;99563.00;2117099;27;46822;-54
2024/02/12 00:16:16;;;;;;;;;1.33;0.33;;;;;14.80;100.00;99564.81;2118530;27;45576;-51
2024/02/12 00:17:16;;;;;;;;;2.00;2.00;;;;;14.79;100.00;99563.94;2116396;27;46226;-53
2024/02/12 00:18:16;;;;;;;;;0.67;0.67;;;;;14.80;100.00;99568.34;2117052;27;46300;-52
2024/02/12 00:19:17;;;;;;;;;2.67;2.00;;;;;14.78;100.00;99566.69;2115960;27;45674;-53
2024/02/12 00:20:17;;;;;;;;;1.00;1.00;;;;;14.79;100.00;99568.41;2113096;27;46852;-53
2024/02/12 00:21:20;;;;;;;;;0.33;0.33;;;;;14.79;100.00;99568.41;2115339;27;47008;-50
2024/02/12 00:22:23;;;;;;;;;2.50;1.00;;;;;14.77;100.00;99570.31;2117048;27;46336;-49
2024/02/12 00:23:23;;;;;;;;;3.25;2.00;;;;;14.74;100.00;99566.03;2116991;27;46766;-51
2024/02/12 00:24:24;;;;;;;;;2.00;2.00;;;;;14.75;100.00;99567.75;2117629;27;46365;-53
2024/02/12 00:25:24;;;;;;;;;2.00;2.00;;;;;14.76;100.00;99565.94;2117299;27;46792;-51
2024/02/12 00:26:25;;;;;;;;;1.00;1.00;;;;;14.75;100.00;99567.75;2116528;27;47112;-48
2024/02/12 00:27:27;;;;;;;;;3.33;1.67;;;;;14.82;100.00;99563.75;2118290;27;45574;-50
2024/02/12 00:28:28;;;;;;;;;1.00;1.00;;;;;14.87;100.00;99569.72;2116471;27;45084;-54
2024/02/12 00:29:30;;;;;;;;;1.00;0.00;;;;;14.87;100.00;99569.72;2098896;28;46127;-50
2024/02/12 00:30:32;;;;;;;;;3.00;2.00;;;;;14.86;100.00;99575.13;2098896;27;46459;-51
2024/02/12 00:31:33;;;;;;;;;2.00;2.00;;;;;14.93;100.00;99572.00;2092492;28;46948;-51
2024/02/12 00:32:33;;;;;;;;;2.00;1.67;;;;;14.92;100.00;99577.44;2095156;27;46131;-52
2024/02/12 00:33:35;;;;;;;;;1.00;1.00;;;;;14.86;100.00;99575.13;2116789;27;46469;-50
2024/02/12 00:34:36;;;;;;;;;2.00;2.00;;;;;14.87;100.00;99576.88;2107664;27;47021;-50
2024/02/12 00:35:41;;;;;;;;;2.00;1.00;;;;;14.86;100.00;99578.66;2106731;27;46782;-51
2024/02/12 00:36:45;;;;;;;;;1.75;1.00;;;;;14.78;100.00;99572.03;2116052;27;46756;-52
2024/02/12 00:37:45;;;;;;;;;2.00;2.00;;;;;14.84;100.00;99575.22;2116764;27;47472;-53
2024/02/12 00:38:47;;;;;;;;;3.00;2.00;;;;;14.80;100.00;99575.47;2117516;27;46683;-52
2024/02/12 00:39:48;;;;;;;;;1.00;1.00;;;;;14.78;100.00;99580.91;2116255;27;46331;-52
2024/02/12 00:40:48;;;;;;;;;2.00;1.00;;;;;14.78;100.00;99582.72;2116913;27;46740;-52
2024/02/12 00:41:53;;;;;;;;;2.00;0.67;;;;;14.66;100.00;99578.94;2116952;27;46471;-52
2024/02/12 00:42:57;;;;;;;;;2.00;1.50;;;;;14.68;100.00;99585.91;2116459;27;46955;-52
2024/02/12 00:43:57;;;;;;;;;1.25;1.25;;;;;14.75;100.00;99586.44;2117310;27;46597;-48
2024/02/12 00:44:58;;;;;;;;;1.00;1.00;;;;;14.92;100.00;99590.81;2117640;27;46355;-51
2024/02/12 00:45:59;;;;;;;;;2.00;1.00;;;;;14.94;100.00;99588.91;2101551;28;46291;-51
2024/02/12 00:47:00;;;;;;;;;2.00;1.00;;;;;14.96;100.00;99587.84;2103283;28;46867;-54
2024/02/12 00:48:01;;;;;;;;;1.00;1.00;;;;;14.96;100.00;99582.53;2116062;27;46643;-49
2024/02/12 00:49:01;;;;;;;;;2.75;1.00;;;;;14.98;100.00;99590.44;2116068;27;46726;-52
2024/02/12 00:50:05;;;;;;;;;3.00;1.33;;;;;14.97;100.00;99591.41;2116725;27;46178;-51
2024/02/12 00:51:05;;;;;;;;;1.67;1.67;;;;;14.97;100.00;99589.59;2115716;27;46900;-49
2024/02/12 00:52:07;;;;;;;;;2.00;2.00;;;;;14.98;100.00;99598.47;2116401;27;46466;-50
2024/02/12 00:53:09;;;;;;;;;3.00;2.50;;;;;14.97;100.00;99586.91;2114532;27;46496;-49
2024/02/12 00:54:12;;;;;;;;;1.00;0.25;;;;;14.97;100.00;99586.91;2114465;27;46557;-49
2024/02/12 00:55:13;;;;;;;;;4.00;1.75;;;;;14.98;100.00;99595.78;2116415;27;46424;-51
2024/02/12 00:56:15;;;;;;;;;2.00;2.00;;;;;14.98;100.00;99593.97;2116773;27;46724;-52
2024/02/12 00:57:15;;;;;;;;;2.00;1.00;;;;;15.00;100.00;99593.91;2117463;27;46385;-50
2024/02/12 00:58:16;;;;;;;;;3.00;1.00;;;;;15.01;100.00;99595.63;2116552;27;46322;-48
2024/02/12 00:59:19;;;;;;;;;0.00;0.00;;;;;15.02;100.00;99598.22;2116333;27;46389;-52
2024/02/12 01:00:20;;;;;;;;;1.25;1.25;;;;;15.00;100.00;99602.78;2117708;27;46821;-48
2024/02/12 01:01:20;;;;;;;;;4.00;1.25;;;;;14.94;100.00;99594.25;2115823;27;46895;-49
2024/02/12 01:02:22;;;;;;;;;2.33;2.33;;;;;14.96;100.00;99595.00;2116767;27;46859;-49
2024/02/12 01:03:22;;;;;;;;;3.00;3.00;;;;;14.95;100.00;99595.97;2117151;27;47679;-51
2024/02/12 01:04:23;;;;;;;;;3.00;3.00;;;;;14.95;100.00;99599.50;2114422;27;46211;-51
2024/02/12 01:05:23;;;;;;;;;2.67;2.67;;;;;14.98;100.00;99602.00;2115300;27;46256;-51
2024/02/12 01:06:24;;;;;;;;;4.00;3.00;;;;;14.98;100.00;99599.31;2115372;27;46644;-50
2024/02/12 01:07:25;;;;;;;;;2.75;1.50;;;;;14.98;100.00;99590.44;2113750;27;46781;-48
2024/02/12 01:08:25;;;;;;;;;2.33;1.67;;;;;14.98;100.00;99599.31;2116563;27;46318;-51
2024/02/12 01:09:26;;;;;;;;;1.00;1.00;;;;;14.97;100.00;99602.94;2117503;27;46766;-48
2024/02/12 01:10:26;;;;;;;;;2.75;2.75;;;;;14.97;100.00;99602.09;2113959;27;45940;-50
2024/02/12 01:11:28;;;;;;;;;3.00;2.00;;;;;14.97;100.00;99604.75;2116159;27;46439;-54
2024/02/12 01:12:30;;;;;;;;;3.50;2.75;;;;;14.97;100.00;99607.41;2116359;27;46663;-47
2024/02/12 01:13:31;;;;;;;;;1.75;1.75;;;;;14.96;100.00;99609.22;2116296;27;46544;-49
2024/02/12 01:14:31;;;;;;;;;2.75;2.75;;;;;14.97;100.00;99602.09;2116106;27;46494;-53
2024/02/12 01:15:31;;;;;;;;;0.67;0.67;;;;;14.93;100.00;99601.41;2117342;27;46302;-50
2024/02/12 01:16:32;;;;;;;;;1.67;1.67;;;;;14.93;100.00;99598.72;2116278;27;46383;-52
2024/02/12 01:17:33;;;;;;;;;3.00;1.50;;;;;14.94;100.00;99602.25;2116917;27;47073;-50
2024/02/12 01:18:33;;;;;;;;;1.67;1.33;;;;;14.93;100.00;99601.41;2115721;27;46398;-48
2024/02/12 01:19:36;;;;;;;;;2.00;2.00;;;;;14.92;100.00;99599.69;2107668;27;46418;-49
2024/02/12 01:20:36;;;;;;;;;2.25;2.25;;;;;14.92;100.00;99606.84;2107239;27;46521;-53
2024/02/12 01:21:37;;;;;;;;;1.00;1.00;;;;;14.84;100.00;99607.25;2117138;27;45861;-49
2024/02/12 01:22:41;;;;;;;;;1.00;1.00;;;;;14.83;100.00;99612.69;2116641;27;46823;-52
2024/02/12 01:23:44;;;;;;;;;2.00;2.00;;;;;14.80;100.00;99611.06;2115811;27;47215;-51
2024/02/12 01:24:46;;;;;;;;;1.50;1.50;;;;;14.79;100.00;99612.00;2115638;27;46793;-50
2024/02/12 01:25:50;;;;;;;;;1.00;1.00;;;;;14.78;100.00;99617.44;2117609;27;46285;-52
2024/02/12 01:26:50;;;;;;;;;2.75;1.75;;;;;14.76;100.00;99614.88;2115969;27;46338;-53
2024/02/12 01:27:51;;;;;;;;;2.00;2.00;;;;;14.73;100.00;99623.03;2114373;27;46849;-49
2024/02/12 01:28:51;;;;;;;;;2.00;2.00;;;;;14.78;100.00;99620.13;2117274;27;46882;-50
2024/02/12 01:29:52;;;;;;;;;2.00;2.00;;;;;14.77;100.00;99619.25;2116428;27;46620;-50
2024/02/12 01:30:52;;;;;;;;;1.00;1.00;;;;;14.75;100.00;99621.16;2117518;27;46530;-53
2024/02/12 01:31:53;;;;;;;;;4.00;2.67;;;;;14.74;100.00;99619.44;2116544;27;46947;-52
2024/02/12 01:32:54;;;;;;;;;3.00;1.00;;;;;14.72;100.00;99622.16;2107604;27;46621;-51
2024/02/12 01:33:54;;;;;;;;;1.00;1.00;;;;;14.73;100.00;99629.22;2106249;27;46625;-50
2024/02/12 01:34:55;;;;;;;;;1.33;1.33;;;;;14.73;100.00;99629.22;2115930;27;47106;-53
2024/02/12 01:35:55;;;;;;;;;2.00;2.00;;;;;14.71;100.00;99631.13;2116186;27;47306;-50
2024/02/12 01:36:56;;;;;;;;;3.00;1.00;;;;;14.72;100.00;99632.00;2116949;27;46109;-54
2024/02/12 01:37:56;;;;;;;;;1.00;1.00;;;;;14.78;100.00;99634.34;2115771;27;46458;-50
2024/02/12 01:38:57;;;;;;;;;2.00;1.33;;;;;14.76;100.00;99630.88;2116494;27;46269;-53
2024/02/12 01:39:57;;;;;;;;;2.33;2.00;;;;;14.74;100.00;99635.47;2115975;27;46377;-51
2024/02/12 01:40:58;;;;;;;;;1.00;1.00;;;;;14.73;100.00;99639.06;2115445;27;46307;-50
2024/02/12 01:41:58;;;;;;;;;0.00;0.00;;;;;14.73;100.00;99631.91;2116434;27;46270;-50
2024/02/12 01:42:58;;;;;;;;;2.67;2.00;;;;;14.72;100.00;99637.31;2116623;27;46349;-48
2024/02/12 01:43:59;;;;;;;;;1.00;1.00;;;;;14.73;100.00;99637.25;2115807;27;46934;-50
2024/02/12 01:45:13;;;;;;;;;1.00;1.00;;;;;14.73;100.00;99634.56;2114095;27;46479;-49
2024/02/12 01:46:13;;;;;;;;;3.25;3.25;;;;;14.69;100.00;99634.84;2115673;27;46774;-53
2024/02/12 01:47:15;;;;;;;;;1.00;1.00;;;;;14.68;100.00;99636.66;2116288;27;46384;-49
2024/02/12 01:48:18;;;;;;;;;2.75;2.00;;;;;14.67;100.00;99645.59;2116050;27;46802;-52
2024/02/12 01:49:19;;;;;;;;;1.50;1.50;;;;;14.68;100.00;99638.47;2115520;27;46243;-49
2024/02/12 01:50:20;;;;;;;;;1.25;1.00;;;;;14.69;100.00;99640.19;2116754;27;46299;-51
2024/02/12 01:51:21;;;;;;;;;2.00;2.00;;;;;14.65;100.00;99633.28;2105437;27;46920;-50
2024/02/12 01:52:23;;;;;;;;;1.25;1.25;;;;;14.69;100.00;99641.03;2105655;27;46438;-52
2024/02/12 01:53:23;;;;;;;;;2.75;1.25;;;;;14.67;100.00;99634.94;2116803;27;46321;-50
2024/02/12 01:54:24;;;;;;;;;2.00;1.33;;;;;14.70;100.00;99634.75;2115533;27;46837;-52
2024/02/12 01:55:24;;;;;;;;;2.00;2.00;;;;;14.67;100.00;99642.94;2116634;27;46727;-50
2024/02/12 01:56:27;;;;;;;;;1.67;1.00;;;;;14.69;100.00;99649.06;2116969;27;46288;-50
2024/02/12 01:57:28;;;;;;;;;3.25;1.00;;;;;14.67;100.00;99647.41;2116092;27;47043;-49
2024/02/12 01:58:32;;;;;;;;;3.50;1.00;;;;;14.71;100.00;99647.16;2116528;27;45909;-51
2024/02/12 01:59:32;;;;;;;;;1.75;1.75;;;;;14.76;100.00;99644.25;2116520;27;46934;-50
2024/02/12 02:00:32;;;;;;;;;3.00;1.67;;;;;14.78;100.00;99649.50;2115776;27;45783;-49
2024/02/12 02:01:33;;;;;;;;;1.00;1.00;;;;;14.78;100.00;99649.50;2116173;27;46107;-48
2024/02/12 02:02:33;;;;;;;;;2.00;1.67;;;;;14.79;100.00;99653.88;2113838;27;46813;-51
2024/02/12 02:03:33;;;;;;;;;3.00;2.00;;;;;14.78;100.00;99649.50;2099067;28;46410;-49
2024/02/12 02:04:35;;;;;;;;;2.33;1.00;;;;;14.77;100.00;99648.63;2099032;28;46266;-49
2024/02/12 02:05:36;;;;;;;;;1.25;1.25;;;;;14.77;100.00;99653.97;2115580;27;46495;-52
2024/02/12 02:06:37;;;;;;;;;2.67;1.00;;;;;14.76;100.00;99654.94;2116518;27;46383;-49
2024/02/12 02:07:38;;;;;;;;;6.25;2.25;;;;;14.77;100.00;99655.78;2116702;27;46310;-47
2024/02/12 02:08:40;;;;;;;;;1.00;1.00;;;;;14.78;100.00;99654.84;2115021;27;46310;-50
2024/02/12 02:09:42;;;;;;;;;2.00;1.50;;;;;14.77;100.00;99650.44;2116129;27;46882;-50
2024/02/12 02:10:48;;;;;;;;;2.00;2.00;;;;;14.76;100.00;99648.72;2115625;27;46666;-50
2024/02/12 02:11:48;;;;;;;;;2.50;2.50;;;;;14.76;100.00;99649.59;2115775;27;46557;-51
2024/02/12 02:12:49;;;;;;;;;3.00;3.00;;;;;14.76;100.00;99646.91;2117041;27;47225;-48
2024/02/12 02:13:52;;;;;;;;;6.00;4.75;;;;;14.76;100.00;99656.75;2116070;27;46432;-53
2024/02/12 02:14:53;;;;;;;;;2.75;2.00;;;;;14.75;100.00;99649.69;2107589;27;46343;-49
2024/02/12 02:15:53;;;;;;;;;1.00;1.00;;;;;14.73;100.00;99653.25;2107601;27;46608;-49
2024/02/12 02:16:53;;;;;;;;;6.00;2.00;;;;;14.73;100.00;99649.72;2116297;27;46267;-51
2024/02/12 02:17:54;;;;;;;;;3.67;1.00;;;;;14.72;100.00;99656.03;2116472;27;46317;-52
2024/02/12 02:18:54;;;;;;;;;4.00;4.00;;;;;14.73;100.00;99657.75;2116022;27;46064;-52
2024/02/12 02:19:58;;;;;;;;;4.67;4.00;;;;;14.73;100.00;99657.75;2114171;27;46858;-52
2024/02/12 02:21:00;;;;;;;;;2.75;2.50;;;;;14.68;100.00;99651.81;2117161;27;45819;-52
2024/02/12 02:22:02;;;;;;;;;3.75;2.75;;;;;14.69;100.00;99650.84;2093925;28;46947;-51
2024/02/12 02:23:04;;;;;;;;;2.25;2.00;;;;;14.70;100.00;99657.91;2094137;27;46928;-51
2024/02/12 02:24:04;;;;;;;;;2.25;1.75;;;;;14.69;100.00;99653.53;2116264;27;46672;-51
2024/02/12 02:25:05;;;;;;;;;2.00;1.33;;;;;14.72;100.00;99661.38;2116457;27;46653;-49
2024/02/12 02:26:06;;;;;;;;;3.50;3.00;;;;;14.73;100.00;99668.44;2111750;27;46934;-49
2024/02/12 02:27:06;;;;;;;;;2.00;2.00;;;;;14.73;100.00;99657.75;2114957;27;46678;-49
2024/02/12 02:28:07;;;;;;;;;3.00;2.00;;;;;14.74;100.00;99659.50;2115721;27;46659;-49
2024/02/12 02:29:09;;;;;;;;;3.00;3.00;;;;;14.73;100.00;99655.94;2115300;27;46638;-52
2024/02/12 02:30:10;;;;;;;;;2.25;1.75;;;;;14.76;100.00;99667.41;2113847;27;46346;-47
2024/02/12 02:31:11;;;;;;;;;1.25;1.25;;;;;14.75;100.00;99657.69;2116060;27;45409;-49
2024/02/12 02:32:11;;;;;;;;;2.33;2.33;;;;;14.76;100.00;99656.75;2116303;27;46476;-50
2024/02/12 02:33:12;;;;;;;;;1.00;1.00;;;;;14.74;100.00;99662.16;2116166;27;46922;-49
2024/02/12 02:34:13;;;;;;;;;1.50;1.50;;;;;14.70;100.00;99663.25;2116512;27;46316;-49
2024/02/12 02:35:13;;;;;;;;;1.33;1.33;;;;;14.69;100.00;99661.53;2116284;27;46177;-49
2024/02/12 02:36:14;;;;;;;;;0.67;0.67;;;;;14.67;100.00;99652.75;2114662;27;46989;-49
2024/02/12 02:37:15;;;;;;;;;3.00;1.00;;;;;14.65;100.00;99641.31;2116969;27;46657;-48
2024/02/12 02:38:15;;;;;;;;;1.00;1.00;;;;;14.65;100.00;99642.16;2116593;27;46868;-47
2024/02/12 02:39:15;;;;;;;;;2.00;1.00;;;;;14.64;100.00;99650.25;2115284;27;46506;-49
2024/02/12 02:40:16;;;;;;;;;1.00;1.00;;;;;14.66;100.00;99648.38;2116407;27;46596;-47
2024/02/12 02:41:18;;;;;;;;;3.67;2.67;;;;;14.67;100.00;99644.75;2115759;27;46513;-49
2024/02/12 02:42:18;;;;;;;;;2.00;2.00;;;;;14.67;100.00;99644.75;2115018;27;46523;-48
2024/02/12 02:43:18;;;;;;;;;2.00;1.00;;;;;14.70;100.00;99645.44;2114403;27;46602;-48
2024/02/12 02:44:19;;;;;;;;;1.00;1.00;;;;;14.71;100.00;99644.47;2113682;27;46851;-50
2024/02/12 02:45:19;;;;;;;;;1.67;1.67;;;;;14.71;100.00;99643.63;2116245;27;46661;-50
2024/02/12 02:46:26;;;;;;;;;1.00;1.00;;;;;14.72;100.00;99645.34;2116520;27;46872;-52
2024/02/12 02:47:26;;;;;;;;;2.50;2.00;;;;;14.69;100.00;99641.03;2116317;27;45324;-51
2024/02/12 02:48:28;;;;;;;;;1.33;1.33;;;;;14.67;100.00;99648.28;2116392;27;47924;-49
2024/02/12 02:49:28;;;;;;;;;3.00;1.25;;;;;14.67;100.00;99647.41;2115912;27;46226;-51
2024/02/12 02:50:31;;;;;;;;;3.33;2.67;;;;;14.66;100.00;99645.69;2116142;27;46443;-52
2024/02/12 02:51:34;;;;;;;;;2.75;1.00;;;;;14.64;100.00;99650.25;2116504;27;46659;-52
2024/02/12 02:52:35;;;;;;;;;1.50;1.00;;;;;14.64;100.00;99645.78;2116307;27;46914;-52
2024/02/12 02:53:35;;;;;;;;;2.00;2.00;;;;;14.64;100.00;99650.25;2115394;27;46747;-48
2024/02/12 02:54:36;;;;;;;;;2.00;1.00;;;;;14.64;100.00;99644.94;2116101;27;46427;-52
2024/02/12 02:55:36;;;;;;;;;3.00;1.67;;;;;14.64;100.00;99643.13;2116274;27;46366;-50
2024/02/12 02:56:36;;;;;;;;;3.00;2.00;;;;;14.64;100.00;99647.59;2116505;27;46441;-49
2024/02/12 02:57:39;;;;;;;;;1.00;1.00;;;;;14.65;100.00;99642.16;2115596;27;46622;-50
2024/02/12 02:58:40;;;;;;;;;1.50;1.00;;;;;14.64;100.00;99642.25;2116203;27;46467;-52
2024/02/12 02:59:41;;;;;;;;;2.00;2.00;;;;;14.63;100.00;99638.72;2115719;27;46233;-49
2024/02/12 03:00:41;;;;;;;;;4.25;3.00;;;;;14.61;100.00;99648.63;2113669;27;46290;-49
2024/02/12 03:01:41;;;;;;;;;1.00;1.00;;;;;14.61;100.00;99645.97;2115657;27;46725;-50
2024/02/12 03:02:42;;;;;;;;;4.00;1.67;;;;;14.61;100.00;99648.63;2116613;27;46756;-48
2024/02/12 03:03:42;;;;;;;;;4.00;3.33;;;;;14.64;100.00;99651.13;2107095;27;46626;-47
2024/02/12 03:04:42;;;;;;;;;1.00;1.00;;;;;14.64;100.00;99643.13;2107048;27;46415;-50
2024/02/12 03:05:43;;;;;;;;;2.00;2.00;;;;;14.69;100.00;99650.84;2115195;27;46751;-48
2024/02/12 03:06:43;;;;;;;;;2.00;2.00;;;;;14.68;100.00;99647.34;2113677;27;46461;-50
2024/02/12 03:07:45;;;;;;;;;2.67;1.67;;;;;14.69;100.00;99653.53;2115974;27;45522;-51
2024/02/12 03:08:49;;;;;;;;;2.00;2.00;;;;;14.69;100.00;99645.53;2115782;27;46727;-52
2024/02/12 03:09:49;;;;;;;;;2.75;1.00;;;;;14.67;100.00;99653.63;2106132;27;46209;-51
2024/02/12 03:10:53;;;;;;;;;2.67;1.67;;;;;14.66;100.00;99641.22;2107427;27;46286;-49
2024/02/12 03:11:54;;;;;;;;;3.75;3.75;;;;;14.65;100.00;99647.50;2116834;27;46245;-51
2024/02/12 03:12:55;;;;;;;;;2.00;2.00;;;;;14.65;100.00;99644.84;2105744;27;47050;-50
2024/02/12 03:13:56;;;;;;;;;3.00;3.00;;;;;14.65;100.00;99646.66;2106495;27;46233;-49
2024/02/12 03:14:59;;;;;;;;;3.67;3.00;;;;;14.63;100.00;99654.75;2115607;27;46919;-48
2024/02/12 03:15:59;;;;;;;;;2.00;2.00;;;;;14.65;100.00;99650.19;2115849;27;46961;-49
2024/02/12 03:16:59;;;;;;;;;1.00;0.67;;;;;14.68;100.00;99649.13;2115570;27;46320;-50
2024/02/12 03:18:00;;;;;;;;;2.00;2.00;;;;;14.68;100.00;99646.47;2112644;27;46293;-51
2024/02/12 03:19:01;;;;;;;;;2.00;1.67;;;;;14.68;100.00;99652.66;2114052;27;46263;-48
2024/02/12 03:20:01;;;;;;;;;3.25;2.25;;;;;14.69;100.00;99645.53;2116109;27;47045;-49
2024/02/12 03:21:02;;;;;;;;;1.67;1.67;;;;;14.67;100.00;99640.25;2115597;27;46595;-50
2024/02/12 03:22:03;;;;;;;;;2.00;1.00;;;;;14.71;100.00;99647.16;2114813;27;46287;-51
2024/02/12 03:23:03;;;;;;;;;1.00;1.00;;;;;14.73;100.00;99647.91;2116825;27;47023;-50
2024/02/12 03:24:04;;;;;;;;;1.00;0.00;;;;;14.75;100.00;99647.88;2115836;27;46407;-50
2024/02/12 03:25:05;;;;;;;;;1.00;1.00;;;;;14.74;100.00;99640.81;2115732;27;46380;-50
2024/02/12 03:26:08;;;;;;;;;1.00;1.00;;;;;14.75;100.00;99636.31;2115733;27;46753;-50
2024/02/12 03:27:09;;;;;;;;;2.00;2.00;;;;;14.72;100.00;99640.84;2106588;27;46930;-49
2024/02/12 03:28:09;;;;;;;;;1.00;1.00;;;;;14.73;100.00;99650.59;2107306;27;46574;-51
2024/02/12 03:29:12;;;;;;;;;1.00;1.00;;;;;14.73;100.00;99641.72;2115458;27;46537;-49
2024/02/12 03:30:12;;;;;;;;;0.75;0.75;;;;;14.75;100.00;99641.66;2115102;27;46622;-49
2024/02/12 03:31:13;;;;;;;;;1.00;1.00;;;;;14.75;100.00;99645.19;2115974;27;46314;-50
2024/02/12 03:32:13;;;;;;;;;3.00;1.00;;;;;14.74;100.00;99648.81;2115495;27;46552;-49
2024/02/12 03:33:13;;;;;;;;;2.00;1.00;;;;;14.74;100.00;99654.16;2116704;27;46797;-50
2024/02/12 03:34:14;;;;;;;;;4.00;2.00;;;;;14.74;100.00;99646.16;2114119;27;45766;-50
2024/02/12 03:35:14;;;;;;;;;1.00;1.00;;;;;14.77;100.00;99661.13;2114472;27;46640;-53
2024/02/12 03:36:15;;;;;;;;;2.00;1.00;;;;;14.32;100.00;99657.31;2117376;27;46761;-53
2024/02/12 03:37:19;;;;;;;;;3.50;2.00;;;;;14.70;100.00;99656.13;2115072;27;46344;-52
2024/02/12 03:38:19;;;;;;;;;2.00;2.00;;;;;14.73;100.00;99653.25;2115825;27;46156;-48
2024/02/12 03:39:19;;;;;;;;;1.00;1.00;;;;;14.76;100.00;99654.06;2115739;27;45765;-49
2024/02/12 03:40:22;;;;;;;;;6.67;1.33;;;;;14.77;100.00;99659.31;2116037;27;46824;-50
2024/02/12 03:41:24;;;;;;;;;1.25;1.25;;;;;14.76;100.00;99657.59;2114917;27;46597;-50
2024/02/12 03:42:28;;;;;;;;;1.50;1.50;;;;;14.76;100.00;99649.59;2114332;27;45985;-51
2024/02/12 03:43:28;;;;;;;;;1.25;1.25;;;;;14.76;100.00;99657.59;2115226;27;46440;-48
2024/02/12 03:44:29;;;;;;;;;2.00;2.00;;;;;14.75;100.00;99647.88;2106071;27;46869;-49
2024/02/12 03:45:29;;;;;;;;;2.00;2.00;;;;;14.76;100.00;99656.75;2106522;27;46666;-49
2024/02/12 03:46:35;;;;;;;;;2.00;2.00;;;;;14.76;100.00;99657.59;2115696;27;46301;-49
2024/02/12 03:47:39;;;;;;;;;1.25;1.25;;;;;14.76;100.00;99654.06;2116248;27;45655;-50
2024/02/12 04:00:50;;;;;;;;;1.00;1.00;;;;;14.68;100.00;99658.00;2083518;28;45765;-51
2024/02/12 04:01:51;;;;;;;;;2.75;1.75;;;;;14.73;100.00;99660.41;2092981;28;46468;-48
2024/02/12 04:02:52;;;;;;;;;1.00;1.00;;;;;14.75;100.00;99660.34;2092378;28;46875;-51
2024/02/12 04:03:52;;;;;;;;;3.00;2.00;;;;;14.75;100.00;99661.22;2093615;28;46315;-51
2024/02/12 04:04:53;;;;;;;;;1.00;1.00;;;;;14.75;100.00;99661.22;2092864;28;46570;-55
2024/02/12 04:05:53;;;;;;;;;3.33;1.00;;;;;14.75;100.00;99666.56;2093199;28;46870;-51
2024/02/12 04:06:55;;;;;;;;;3.00;1.00;;;;;14.76;100.00;99664.75;2093270;28;46771;-50
2024/02/12 04:07:56;;;;;;;;;1.00;1.00;;;;;14.73;100.00;99665.75;2093485;28;46725;-51
2024/02/12 04:08:57;;;;;;;;;1.00;1.00;;;;;14.74;100.00;99670.19;2092254;28;46708;-50
2024/02/12 04:09:59;;;;;;;;;1.33;1.33;;;;;14.75;100.00;99666.56;2091316;28;46249;-52
2024/02/12 04:10:59;;;;;;;;;1.50;1.50;;;;;14.73;100.00;99671.09;2094032;28;46388;-49
2024/02/12 04:11:59;;;;;;;;;2.00;2.00;;;;;14.71;100.00;99664.97;2093788;28;46864;-53
2024/02/12 04:13:01;;;;;;;;;0.33;0.33;;;;;14.71;100.00;99667.66;2093714;28;46686;-52
2024/02/12 04:14:01;;;;;;;;;3.25;1.00;;;;;14.69;100.00;99672.22;2093331;28;46552;-49
2024/02/12 04:15:01;;;;;;;;;1.00;1.00;;;;;14.68;100.00;99662.50;2094233;28;46349;-50
2024/02/12 04:16:09;;;;;;;;;1.50;1.50;;;;;14.68;100.00;99663.34;2093471;28;46322;-52
2024/02/12 04:17:10;;;;;;;;;1.75;1.75;;;;;14.70;100.00;99665.94;2093396;28;46649;-52
2024/02/12 04:18:10;;;;;;;;;1.00;1.00;;;;;14.69;100.00;99670.41;2092640;28;46584;-49
2024/02/12 04:19:11;;;;;;;;;1.00;1.00;;;;;14.70;100.00;99668.59;2093542;28;46964;-51
2024/02/12 04:20:12;;;;;;;;;1.67;1.00;;;;;14.67;100.00;99671.44;2084664;28;46356;-52
2024/02/12 04:21:16;;;;;;;;;2.00;1.00;;;;;14.70;100.00;99673.94;2084826;28;47621;-52
2024/02/12 04:22:17;;;;;;;;;1.50;1.50;;;;;14.69;100.00;99667.75;2091714;28;46890;-49
2024/02/12 04:23:19;;;;;;;;;2.00;1.75;;;;;14.74;100.00;99667.50;2093176;28;47384;-48
2024/02/12 04:24:19;;;;;;;;;0.00;0.00;;;;;14.75;100.00;99676.38;2091828;28;46803;-49
2024/02/12 04:25:23;;;;;;;;;1.00;1.00;;;;;14.75;100.00;99665.69;2093307;28;46689;-50
2024/02/12 04:26:24;;;;;;;;;1.50;1.00;;;;;14.76;100.00;99675.44;2091784;28;46460;-49
2024/02/12 04:27:24;;;;;;;;;2.00;1.00;;;;;14.77;100.00;99670.00;2110433;27;46891;-48
2024/02/12 04:28:24;;;;;;;;;0.00;0.00;;;;;14.76;100.00;99665.59;2116233;27;46429;-50
2024/02/12 04:29:26;;;;;;;;;1.33;1.00;;;;;14.76;100.00;99670.94;2114954;27;46859;-52
2024/02/12 04:30:29;;;;;;;;;1.00;1.00;;;;;14.77;100.00;99674.47;2114459;27;46477;-53
2024/02/12 04:31:29;;;;;;;;;1.25;0.75;;;;;14.76;100.00;99670.94;2106012;27;46418;-51
2024/02/12 04:32:31;;;;;;;;;1.00;1.00;;;;;14.76;100.00;99675.44;2097984;27;46348;-51
2024/02/12 04:33:32;;;;;;;;;2.25;1.00;;;;;14.76;100.00;99673.63;2107491;27;46829;-50
2024/02/12 04:34:33;;;;;;;;;2.00;1.50;;;;;14.77;100.00;99672.66;2115841;27;46546;-52
2024/02/12 04:35:35;;;;;;;;;1.33;0.33;;;;;14.77;100.00;99674.47;2115419;27;46129;-49
2024/02/12 04:36:40;;;;;;;;;1.00;1.00;;;;;14.77;100.00;99678.00;2114987;27;46402;-49
2024/02/12 04:37:45;;;;;;;;;2.00;0.00;;;;;14.77;100.00;99671.81;2115500;27;46426;-48
2024/02/12 04:38:45;;;;;;;;;2.75;1.00;;;;;14.77;100.00;99677.16;2114015;27;46925;-48
2024/02/12 04:39:48;;;;;;;;;3.33;2.00;;;;;14.83;100.00;99674.13;2116207;27;46453;-48
2024/02/12 04:40:49;;;;;;;;;4.75;2.00;;;;;14.81;100.00;99676.88;2114858;27;46627;-49
2024/02/12 04:41:51;;;;;;;;;2.75;2.00;;;;;14.82;100.00;99677.75;2106349;27;46936;-49
2024/02/12 04:42:55;;;;;;;;;2.00;2.00;;;;;14.77;100.00;99683.34;2105311;27;46534;-48
2024/02/12 04:43:55;;;;;;;;;1.50;1.50;;;;;14.74;100.00;99675.53;2116832;27;46154;-51
2024/02/12 04:44:55;;;;;;;;;2.00;2.00;;;;;14.77;100.00;99682.50;2117080;27;46944;-48
2024/02/12 04:45:56;;;;;;;;;2.00;0.33;;;;;14.77;100.00;99683.34;2117504;27;46527;-51
2024/02/12 04:46:58;;;;;;;;;2.00;2.00;;;;;14.73;100.00;99684.44;2117584;27;45720;-52
2024/02/12 04:47:59;;;;;;;;;0.50;0.50;;;;;14.77;100.00;99686.03;2116497;27;46608;-49
2024/02/12 04:49:00;;;;;;;;;4.00;2.00;;;;;14.76;100.00;99680.78;2116300;27;47223;-47
2024/02/12 04:50:00;;;;;;;;;0.00;0.00;;;;;14.72;100.00;99691.59;2116385;27;46593;-52
2024/02/12 04:51:01;;;;;;;;;2.00;2.00;;;;;14.74;100.00;99680.88;2117145;27;46554;-51
2024/02/12 04:52:03;;;;;;;;;1.00;1.00;;;;;14.70;100.00;99685.50;2115816;27;46585;-51
2024/02/12 04:53:04;;;;;;;;;1.25;1.00;;;;;14.67;100.00;99682.13;2116712;27;46479;-48
2024/02/12 04:54:05;;;;;;;;;1.00;1.00;;;;;14.66;100.00;99683.94;2116163;27;45094;-50
2024/02/12 04:55:05;;;;;;;;;1.33;1.33;;;;;14.33;100.00;99686.59;2115985;27;46542;-52
2024/02/12 04:56:06;;;;;;;;;3.33;2.00;;;;;14.64;100.00;99683.16;2115695;27;46345;-51
2024/02/12 04:57:07;;;;;;;;;2.25;1.00;;;;;14.22;100.00;99688.09;2115989;27;46454;-48